createdAt,value
2023-01-13T00:00:23.176Z,509.00
2023-01-13T00:00:53.205Z,511.00
2023-01-13T00:01:23.261Z,510.00
2023-01-13T00:01:53.346Z,510.00
2023-01-13T00:02:23.521Z,510.00
2023-01-13T00:02:53.468Z,510.00
2023-01-13T00:03:23.575Z,509.00
2023-01-13T00:03:53.675Z,506.00
2023-01-13T00:04:23.799Z,507.00
2023-01-13T00:04:53.748Z,509.00
2023-01-13T00:05:23.827Z,510.00
2023-01-13T00:05:53.908Z,508.00
2023-01-13T00:06:24.013Z,508.00
2023-01-13T00:06:54.088Z,509.00
2023-01-13T00:07:24.193Z,508.00
2023-01-13T00:07:54.279Z,508.00
2023-01-13T00:08:24.377Z,508.00
2023-01-13T00:08:54.469Z,508.00
2023-01-13T00:09:24.543Z,509.00
2023-01-13T00:09:54.640Z,510.00
2023-01-13T00:10:24.729Z,510.00
2023-01-13T00:10:54.808Z,508.00
2023-01-13T00:11:24.898Z,509.00
2023-01-13T00:11:55.000Z,510.00
2023-01-13T00:12:25.070Z,510.00
2023-01-13T00:12:55.155Z,510.00
2023-01-13T00:13:25.250Z,510.00
2023-01-13T00:13:55.338Z,509.00
2023-01-13T00:14:25.449Z,511.00
2023-01-13T00:14:55.526Z,509.00
2023-01-13T00:15:25.567Z,508.00
2023-01-13T00:15:55.702Z,508.00
2023-01-13T00:16:25.660Z,506.00
2023-01-13T00:16:55.751Z,505.00
2023-01-13T00:17:25.826Z,507.00
2023-01-13T00:17:55.916Z,507.00
2023-01-13T00:18:25.999Z,506.00
2023-01-13T00:18:56.095Z,507.00
2023-01-13T00:19:26.197Z,505.00
2023-01-13T00:19:56.270Z,505.00
2023-01-13T00:20:26.359Z,506.00
2023-01-13T00:20:56.467Z,508.00
2023-01-13T00:21:26.547Z,510.00
2023-01-13T00:21:56.673Z,509.00
2023-01-13T00:22:26.740Z,507.00
2023-01-13T00:22:56.818Z,506.00
2023-01-13T00:23:26.913Z,507.00
2023-01-13T00:23:57.012Z,507.00
2023-01-13T00:24:27.098Z,507.00
2023-01-13T00:24:57.171Z,509.00
2023-01-13T00:25:27.259Z,508.00
2023-01-13T00:25:57.351Z,508.00
2023-01-13T00:26:27.430Z,509.00
2023-01-13T00:26:57.538Z,509.00
2023-01-13T00:27:27.616Z,508.00
2023-01-13T00:27:57.692Z,509.00
2023-01-13T00:28:27.779Z,510.00
2023-01-13T00:28:58.018Z,510.00
2023-01-13T00:29:27.975Z,509.00
2023-01-13T00:29:58.087Z,509.00
2023-01-13T00:30:28.163Z,508.00
2023-01-13T00:30:58.335Z,507.00
2023-01-13T00:31:28.378Z,506.00
2023-01-13T00:31:58.338Z,503.00
2023-01-13T00:32:28.416Z,503.00
2023-01-13T00:32:58.495Z,501.00
2023-01-13T00:33:28.584Z,501.00
2023-01-13T00:33:58.677Z,499.00
2023-01-13T00:34:28.770Z,498.00
2023-01-13T00:34:58.890Z,499.00
2023-01-13T00:35:28.946Z,502.00
2023-01-13T00:35:59.032Z,501.00
2023-01-13T00:36:29.135Z,499.00
2023-01-13T00:36:59.116Z,497.00
2023-01-13T00:37:29.216Z,497.00
2023-01-13T00:37:59.302Z,495.00
2023-01-13T00:38:29.369Z,495.00
2023-01-13T00:38:59.465Z,497.00
2023-01-13T00:39:29.543Z,497.00
2023-01-13T00:39:59.626Z,496.00
2023-01-13T00:40:29.713Z,497.00
2023-01-13T00:40:59.798Z,497.00
2023-01-13T00:41:29.892Z,498.00
2023-01-13T00:41:59.987Z,498.00
2023-01-13T00:42:30.068Z,499.00
2023-01-13T00:43:00.159Z,501.00
2023-01-13T00:43:30.236Z,500.00
2023-01-13T00:44:00.331Z,499.00
2023-01-13T00:44:30.416Z,499.00
2023-01-13T00:45:00.513Z,500.00
2023-01-13T00:45:30.589Z,500.00
2023-01-13T00:46:00.700Z,501.00
2023-01-13T00:46:30.846Z,501.00
2023-01-13T00:47:00.805Z,501.00
2023-01-13T00:47:30.882Z,500.00
2023-01-13T00:48:00.964Z,500.00
2023-01-13T00:48:31.073Z,501.00
2023-01-13T00:49:01.167Z,501.00
2023-01-13T00:49:31.248Z,501.00
2023-01-13T00:50:01.466Z,500.00
2023-01-13T00:50:31.402Z,499.00
2023-01-13T00:51:01.471Z,502.00
2023-01-13T00:51:31.539Z,500.00
2023-01-13T00:52:01.595Z,501.00
2023-01-13T00:52:31.634Z,500.00
2023-01-13T00:53:01.691Z,499.00
2023-01-13T00:53:31.731Z,501.00
2023-01-13T00:54:01.786Z,501.00
2023-01-13T00:54:31.832Z,501.00
2023-01-13T00:55:01.881Z,500.00
2023-01-13T00:55:31.928Z,500.00
2023-01-13T00:56:02.013Z,499.00
2023-01-13T00:56:40.152Z,499.00
2023-01-13T00:57:02.063Z,501.00
2023-01-13T00:57:32.113Z,502.00
2023-01-13T00:58:02.162Z,500.00
2023-01-13T00:58:32.210Z,500.00
2023-01-13T00:59:02.259Z,501.00
2023-01-13T00:59:32.307Z,501.00
2023-01-13T01:00:02.349Z,498.00
2023-01-13T01:00:32.535Z,497.00
2023-01-13T01:01:02.640Z,496.00
2023-01-13T01:01:32.774Z,498.00
2023-01-13T01:02:02.728Z,497.00
2023-01-13T01:02:32.652Z,495.00
2023-01-13T01:03:02.732Z,497.00
2023-01-13T01:03:32.814Z,497.00
2023-01-13T01:04:02.890Z,497.00
2023-01-13T01:04:32.986Z,498.00
2023-01-13T01:05:03.079Z,496.00
2023-01-13T01:05:33.186Z,496.00
2023-01-13T01:06:03.251Z,496.00
2023-01-13T01:06:33.261Z,493.00
2023-01-13T01:07:03.346Z,491.00
2023-01-13T01:07:33.437Z,491.00
2023-01-13T01:08:03.521Z,490.00
2023-01-13T01:08:33.631Z,489.00
2023-01-13T01:09:03.706Z,491.00
2023-01-13T01:09:33.783Z,491.00
2023-01-13T01:10:03.887Z,492.00
2023-01-13T01:10:33.965Z,491.00
2023-01-13T01:11:04.061Z,493.00
2023-01-13T01:11:34.154Z,495.00
2023-01-13T01:12:04.220Z,497.00
2023-01-13T01:12:34.308Z,496.00
2023-01-13T01:13:04.411Z,498.00
2023-01-13T01:13:34.478Z,499.00
2023-01-13T01:14:04.555Z,496.00
2023-01-13T01:14:34.637Z,497.00
2023-01-13T01:15:04.739Z,496.00
2023-01-13T01:15:34.810Z,495.00
2023-01-13T01:16:04.932Z,495.00
2023-01-13T01:16:35.078Z,496.00
2023-01-13T01:17:05.056Z,497.00
2023-01-13T01:17:35.160Z,498.00
2023-01-13T01:18:05.232Z,499.00
2023-01-13T01:18:35.327Z,499.00
2023-01-13T01:19:05.410Z,500.00
2023-01-13T01:19:35.497Z,500.00
2023-01-13T01:20:05.601Z,501.00
2023-01-13T01:20:35.697Z,501.00
2023-01-13T01:21:05.752Z,501.00
2023-01-13T01:21:35.877Z,499.00
2023-01-13T01:22:05.967Z,499.00
2023-01-13T01:22:36.049Z,499.00
2023-01-13T01:23:06.157Z,499.00
2023-01-13T01:23:36.230Z,497.00
2023-01-13T01:24:06.309Z,497.00
2023-01-13T01:24:36.407Z,495.00
2023-01-13T01:25:06.484Z,494.00
2023-01-13T01:25:36.598Z,494.00
2023-01-13T01:26:06.696Z,492.00
2023-01-13T01:26:36.759Z,492.00
2023-01-13T01:27:06.851Z,492.00
2023-01-13T01:27:36.966Z,491.00
2023-01-13T01:28:07.052Z,493.00
2023-01-13T01:28:37.148Z,494.00
2023-01-13T01:29:07.228Z,493.00
2023-01-13T01:29:37.313Z,494.00
2023-01-13T01:30:07.398Z,493.00
2023-01-13T01:30:37.504Z,492.00
2023-01-13T01:31:07.711Z,492.00
2023-01-13T01:31:37.703Z,492.00
2023-01-13T01:32:07.665Z,491.00
2023-01-13T01:32:37.787Z,493.00
2023-01-13T01:33:07.746Z,492.00
2023-01-13T01:33:37.825Z,492.00
2023-01-13T01:34:07.929Z,493.00
2023-01-13T01:34:38.007Z,494.00
2023-01-13T01:35:08.111Z,495.00
2023-01-13T01:35:38.191Z,495.00
2023-01-13T01:36:08.291Z,496.00
2023-01-13T01:36:38.356Z,495.00
2023-01-13T01:37:08.453Z,493.00
2023-01-13T01:37:38.539Z,494.00
2023-01-13T01:38:08.618Z,495.00
2023-01-13T01:38:38.735Z,492.00
2023-01-13T01:39:08.830Z,493.00
2023-01-13T01:39:38.934Z,494.00
2023-01-13T01:40:09.010Z,493.00
2023-01-13T01:40:39.095Z,493.00
2023-01-13T01:41:09.190Z,490.00
2023-01-13T01:41:39.265Z,491.00
2023-01-13T01:42:09.357Z,490.00
2023-01-13T01:42:39.469Z,489.00
2023-01-13T01:43:09.557Z,488.00
2023-01-13T01:43:39.656Z,489.00
2023-01-13T01:44:09.775Z,489.00
2023-01-13T01:44:39.840Z,489.00
2023-01-13T01:45:09.922Z,489.00
2023-01-13T01:45:40.024Z,489.00
2023-01-13T01:46:10.118Z,488.00
2023-01-13T01:46:40.252Z,488.00
2023-01-13T01:47:10.215Z,486.00
2023-01-13T01:47:40.305Z,488.00
2023-01-13T01:48:10.388Z,487.00
2023-01-13T01:48:40.482Z,489.00
2023-01-13T01:49:10.568Z,487.00
2023-01-13T01:49:40.645Z,486.00
2023-01-13T01:50:10.735Z,485.00
2023-01-13T01:50:40.836Z,484.00
2023-01-13T01:51:10.942Z,482.00
2023-01-13T01:51:41.015Z,482.00
2023-01-13T01:52:11.047Z,482.00
2023-01-13T01:52:41.084Z,483.00
2023-01-13T01:53:11.148Z,484.00
2023-01-13T01:53:41.188Z,485.00
2023-01-13T01:54:11.267Z,485.00
2023-01-13T01:54:41.305Z,486.00
2023-01-13T01:55:11.358Z,485.00
2023-01-13T01:55:41.482Z,485.00
2023-01-13T01:56:11.533Z,485.00
2023-01-13T01:56:41.632Z,486.00
2023-01-13T01:57:11.677Z,486.00
2023-01-13T01:57:41.717Z,486.00
2023-01-13T01:58:11.777Z,486.00
2023-01-13T01:58:41.827Z,487.00
2023-01-13T01:59:11.900Z,489.00
2023-01-13T01:59:41.935Z,489.00
2023-01-13T02:00:11.991Z,489.00
2023-01-13T02:00:42.111Z,489.00
2023-01-13T02:01:12.128Z,489.00
2023-01-13T02:01:42.243Z,490.00
2023-01-13T02:02:12.321Z,488.00
2023-01-13T02:02:42.197Z,490.00
2023-01-13T02:03:12.159Z,490.00
2023-01-13T02:03:42.239Z,490.00
2023-01-13T02:04:12.341Z,490.00
2023-01-13T02:04:42.412Z,491.00
2023-01-13T02:05:12.510Z,492.00
2023-01-13T02:05:42.589Z,492.00
2023-01-13T02:06:12.667Z,491.00
2023-01-13T02:06:42.758Z,489.00
2023-01-13T02:07:12.861Z,488.00
2023-01-13T02:07:42.918Z,488.00
2023-01-13T02:08:13.015Z,487.00
2023-01-13T02:08:43.094Z,487.00
2023-01-13T02:09:13.175Z,487.00
2023-01-13T02:09:43.261Z,487.00
2023-01-13T02:10:13.347Z,485.00
2023-01-13T02:10:43.434Z,485.00
2023-01-13T02:11:13.523Z,483.00
2023-01-13T02:11:43.612Z,483.00
2023-01-13T02:12:13.698Z,481.00
2023-01-13T02:12:43.789Z,479.00
2023-01-13T02:13:13.877Z,477.00
2023-01-13T02:13:43.955Z,477.00
2023-01-13T02:14:14.032Z,479.00
2023-01-13T02:14:44.123Z,480.00
2023-01-13T02:15:14.211Z,480.00
2023-01-13T02:15:44.299Z,482.00
2023-01-13T02:16:14.436Z,483.00
2023-01-13T02:16:44.494Z,483.00
2023-01-13T02:17:14.459Z,483.00
2023-01-13T02:17:44.548Z,484.00
2023-01-13T02:18:14.630Z,485.00
2023-01-13T02:18:44.722Z,486.00
2023-01-13T02:19:14.802Z,485.00
2023-01-13T02:19:44.889Z,485.00
2023-01-13T02:20:14.988Z,484.00
2023-01-13T02:20:45.073Z,485.00
2023-01-13T02:21:15.157Z,485.00
2023-01-13T02:21:45.246Z,484.00
2023-01-13T02:22:15.315Z,484.00
2023-01-13T02:22:45.430Z,482.00
2023-01-13T02:23:15.487Z,483.00
2023-01-13T02:23:45.566Z,483.00
2023-01-13T02:24:15.655Z,481.00
2023-01-13T02:24:45.740Z,480.00
2023-01-13T02:25:15.998Z,482.00
2023-01-13T02:25:45.929Z,482.00
2023-01-13T02:26:16.039Z,481.00
2023-01-13T02:26:46.069Z,480.00
2023-01-13T02:27:16.128Z,481.00
2023-01-13T02:27:46.146Z,481.00
2023-01-13T02:28:16.153Z,481.00
2023-01-13T02:28:46.224Z,481.00
2023-01-13T02:29:16.315Z,481.00
2023-01-13T02:29:46.401Z,479.00
2023-01-13T02:30:16.500Z,480.00
2023-01-13T02:30:46.589Z,480.00
2023-01-13T02:31:16.698Z,480.00
2023-01-13T02:31:46.835Z,480.00
2023-01-13T02:32:16.819Z,479.00
2023-01-13T02:32:46.902Z,479.00
2023-01-13T02:33:16.988Z,479.00
2023-01-13T02:33:47.076Z,482.00
2023-01-13T02:34:17.156Z,482.00
2023-01-13T02:34:47.235Z,481.00
2023-01-13T02:35:17.323Z,481.00
2023-01-13T02:35:47.399Z,481.00
2023-01-13T02:36:17.486Z,481.00
2023-01-13T02:36:47.571Z,483.00
2023-01-13T02:37:17.698Z,483.00
2023-01-13T02:37:47.826Z,482.00
2023-01-13T02:38:17.887Z,480.00
2023-01-13T02:38:47.965Z,480.00
2023-01-13T02:39:18.056Z,479.00
2023-01-13T02:39:48.134Z,480.00
2023-01-13T02:40:18.216Z,481.00
2023-01-13T02:40:48.306Z,481.00
2023-01-13T02:41:18.416Z,480.00
2023-01-13T02:41:48.524Z,480.00
2023-01-13T02:42:18.618Z,479.00
2023-01-13T02:42:48.698Z,479.00
2023-01-13T02:43:18.780Z,480.00
2023-01-13T02:43:48.865Z,479.00
2023-01-13T02:44:18.944Z,479.00
2023-01-13T02:44:49.022Z,480.00
2023-01-13T02:45:19.127Z,484.00
2023-01-13T02:45:49.314Z,484.00
2023-01-13T02:46:19.259Z,482.00
2023-01-13T02:46:49.345Z,482.00
2023-01-13T02:47:19.419Z,481.00
2023-01-13T02:47:49.507Z,481.00
2023-01-13T02:48:19.597Z,483.00
2023-01-13T02:48:49.688Z,481.00
2023-01-13T02:49:19.771Z,481.00
2023-01-13T02:49:49.856Z,478.00
2023-01-13T02:50:19.932Z,477.00
2023-01-13T02:50:50.028Z,479.00
2023-01-13T02:51:20.097Z,479.00
2023-01-13T02:51:50.145Z,479.00
2023-01-13T02:52:20.198Z,479.00
2023-01-13T02:52:50.272Z,478.00
2023-01-13T02:53:20.291Z,478.00
2023-01-13T02:53:50.341Z,479.00
2023-01-13T02:54:20.393Z,478.00
2023-01-13T02:54:50.442Z,479.00
2023-01-13T02:55:20.477Z,480.00
2023-01-13T02:55:50.536Z,480.00
2023-01-13T02:56:20.589Z,478.00
2023-01-13T02:56:50.632Z,479.00
2023-01-13T02:57:20.703Z,479.00
2023-01-13T02:57:50.764Z,478.00
2023-01-13T02:58:20.813Z,477.00
2023-01-13T02:58:50.863Z,477.00
2023-01-13T02:59:20.892Z,475.00
2023-01-13T02:59:50.903Z,476.00
2023-01-13T03:00:20.888Z,477.00
2023-01-13T03:00:50.946Z,475.00
2023-01-13T03:01:21.041Z,479.00
2023-01-13T03:01:51.163Z,480.00
2023-01-13T03:02:21.330Z,481.00
2023-01-13T03:02:51.182Z,483.00
2023-01-13T03:03:21.197Z,481.00
2023-01-13T03:03:51.223Z,484.00
2023-01-13T03:04:21.244Z,483.00
2023-01-13T03:04:51.267Z,484.00
2023-01-13T03:05:21.306Z,484.00
2023-01-13T03:05:51.329Z,483.00
2023-01-13T03:06:21.351Z,482.00
2023-01-13T03:06:51.384Z,481.00
2023-01-13T03:07:21.417Z,480.00
2023-01-13T03:07:51.432Z,478.00
2023-01-13T03:08:21.493Z,477.00
2023-01-13T03:08:51.494Z,478.00
2023-01-13T03:09:21.515Z,479.00
2023-01-13T03:09:51.549Z,479.00
2023-01-13T03:10:21.586Z,479.00
2023-01-13T03:10:51.617Z,479.00
2023-01-13T03:11:21.664Z,480.00
2023-01-13T03:11:51.686Z,479.00
2023-01-13T03:12:21.710Z,476.00
2023-01-13T03:12:51.749Z,478.00
2023-01-13T03:13:21.771Z,478.00
2023-01-13T03:13:51.790Z,480.00
2023-01-13T03:14:21.821Z,479.00
2023-01-13T03:14:51.852Z,478.00
2023-01-13T03:15:21.866Z,480.00
2023-01-13T03:15:51.925Z,480.00
2023-01-13T03:16:21.975Z,481.00
2023-01-13T03:16:52.023Z,483.00
2023-01-13T03:17:22.052Z,482.00
2023-01-13T03:17:52.068Z,481.00
2023-01-13T03:18:22.097Z,484.00
2023-01-13T03:18:52.126Z,482.00
2023-01-13T03:19:22.153Z,481.00
2023-01-13T03:19:52.179Z,480.00
2023-01-13T03:20:22.215Z,477.00
2023-01-13T03:20:52.244Z,475.00
2023-01-13T03:21:22.272Z,475.00
2023-01-13T03:21:52.292Z,475.00
2023-01-13T03:22:22.373Z,474.00
2023-01-13T03:22:52.388Z,474.00
2023-01-13T03:23:22.435Z,474.00
2023-01-13T03:23:52.474Z,473.00
2023-01-13T03:24:22.473Z,472.00
2023-01-13T03:24:52.498Z,470.00
2023-01-13T03:25:22.532Z,470.00
2023-01-13T03:25:52.727Z,470.00
2023-01-13T03:26:22.625Z,472.00
2023-01-13T03:26:52.659Z,472.00
2023-01-13T03:27:22.763Z,472.00
2023-01-13T03:27:52.792Z,471.00
2023-01-13T03:28:22.824Z,470.00
2023-01-13T03:28:52.851Z,470.00
2023-01-13T03:29:22.891Z,471.00
2023-01-13T03:29:52.894Z,473.00
2023-01-13T03:30:23.022Z,471.00
2023-01-13T03:30:53.053Z,473.00
2023-01-13T03:31:23.077Z,472.00
2023-01-13T03:31:53.100Z,472.00
2023-01-13T03:32:23.148Z,471.00
2023-01-13T03:32:53.162Z,468.00
2023-01-13T03:33:23.206Z,468.00
2023-01-13T03:33:53.236Z,467.00
2023-01-13T03:34:23.269Z,467.00
2023-01-13T03:34:53.282Z,469.00
2023-01-13T03:35:23.317Z,470.00
2023-01-13T03:35:53.361Z,473.00
2023-01-13T03:36:23.372Z,474.00
2023-01-13T03:36:53.400Z,472.00
2023-01-13T03:37:23.426Z,473.00
2023-01-13T03:37:53.449Z,474.00
2023-01-13T03:38:23.477Z,476.00
2023-01-13T03:38:53.510Z,474.00
2023-01-13T03:39:23.565Z,476.00
2023-01-13T03:39:53.570Z,474.00
2023-01-13T03:40:23.614Z,474.00
2023-01-13T03:40:53.640Z,475.00
2023-01-13T03:41:23.662Z,475.00
2023-01-13T03:41:53.691Z,471.00
2023-01-13T03:42:23.735Z,471.00
2023-01-13T03:42:53.758Z,470.00
2023-01-13T03:43:23.793Z,469.00
2023-01-13T03:43:53.823Z,470.00
2023-01-13T03:44:23.870Z,472.00
2023-01-13T03:44:53.887Z,473.00
2023-01-13T03:45:23.932Z,473.00
2023-01-13T03:45:53.980Z,474.00
2023-01-13T03:46:24.091Z,473.00
2023-01-13T03:46:54.024Z,472.00
2023-01-13T03:47:24.068Z,472.00
2023-01-13T03:47:54.092Z,473.00
2023-01-13T03:48:24.113Z,471.00
2023-01-13T03:48:54.150Z,474.00
2023-01-13T03:49:24.179Z,476.00
2023-01-13T03:49:54.204Z,476.00
2023-01-13T03:50:24.237Z,476.00
2023-01-13T03:50:54.331Z,475.00
2023-01-13T03:51:24.345Z,476.00
2023-01-13T03:51:54.503Z,476.00
2023-01-13T03:52:24.584Z,477.00
2023-01-13T03:52:54.567Z,476.00
2023-01-13T03:53:24.682Z,475.00
2023-01-13T03:53:54.831Z,475.00
2023-01-13T03:54:24.907Z,475.00
2023-01-13T03:54:55.055Z,474.00
2023-01-13T03:55:25.151Z,473.00
2023-01-13T03:55:55.134Z,472.00
2023-01-13T03:56:25.260Z,470.00
2023-01-13T03:56:55.248Z,471.00
2023-01-13T03:57:25.371Z,470.00
2023-01-13T03:57:55.471Z,469.00
2023-01-13T03:58:25.460Z,469.00
2023-01-13T03:58:55.577Z,471.00
2023-01-13T03:59:25.576Z,471.00
2023-01-13T03:59:55.688Z,470.00
2023-01-13T04:00:25.687Z,469.00
2023-01-13T04:00:55.789Z,471.00
2023-01-13T04:01:25.865Z,470.00
2023-01-13T04:01:55.930Z,470.00
2023-01-13T04:02:25.729Z,470.00
2023-01-13T04:02:55.756Z,470.00
2023-01-13T04:03:25.855Z,469.00
2023-01-13T04:03:55.922Z,468.00
2023-01-13T04:04:25.939Z,469.00
2023-01-13T04:04:55.956Z,468.00
2023-01-13T04:05:25.984Z,468.00
2023-01-13T04:05:56.011Z,469.00
2023-01-13T04:06:26.040Z,469.00
2023-01-13T04:06:56.097Z,469.00
2023-01-13T04:07:26.173Z,472.00
2023-01-13T04:07:56.210Z,472.00
2023-01-13T04:08:26.242Z,473.00
2023-01-13T04:08:56.253Z,474.00
2023-01-13T04:09:26.275Z,474.00
2023-01-13T04:09:56.298Z,475.00
2023-01-13T04:10:26.355Z,473.00
2023-01-13T04:10:56.353Z,475.00
2023-01-13T04:11:26.393Z,477.00
2023-01-13T04:11:56.412Z,474.00
2023-01-13T04:12:26.430Z,473.00
2023-01-13T04:12:56.464Z,473.00
2023-01-13T04:13:26.491Z,475.00
2023-01-13T04:13:56.524Z,472.00
2023-01-13T04:14:26.546Z,472.00
2023-01-13T04:14:56.574Z,472.00
2023-01-13T04:15:26.726Z,472.00
2023-01-13T04:15:56.746Z,472.00
2023-01-13T04:16:26.659Z,470.00
2023-01-13T04:16:56.672Z,469.00
2023-01-13T04:17:26.703Z,471.00
2023-01-13T04:17:56.723Z,471.00
2023-01-13T04:18:26.819Z,471.00
2023-01-13T04:18:56.825Z,468.00
2023-01-13T04:19:26.897Z,468.00
2023-01-13T04:19:56.935Z,467.00
2023-01-13T04:20:26.947Z,467.00
2023-01-13T04:20:56.973Z,466.00
2023-01-13T04:21:27.170Z,467.00
2023-01-13T04:21:57.110Z,467.00
2023-01-13T04:22:27.138Z,468.00
2023-01-13T04:22:57.163Z,468.00
2023-01-13T04:23:27.177Z,466.00
2023-01-13T04:23:57.213Z,466.00
2023-01-13T04:24:27.241Z,465.00
2023-01-13T04:24:57.255Z,464.00
2023-01-13T04:25:27.291Z,465.00
2023-01-13T04:25:57.340Z,466.00
2023-01-13T04:26:27.348Z,467.00
2023-01-13T04:26:57.377Z,468.00
2023-01-13T04:27:27.409Z,469.00
2023-01-13T04:27:57.485Z,468.00
2023-01-13T04:28:27.505Z,469.00
2023-01-13T04:28:57.526Z,468.00
2023-01-13T04:29:27.543Z,467.00
2023-01-13T04:29:57.603Z,467.00
2023-01-13T04:30:27.643Z,466.00
2023-01-13T04:30:57.764Z,464.00
2023-01-13T04:31:27.790Z,465.00
2023-01-13T04:31:57.793Z,464.00
2023-01-13T04:32:27.818Z,464.00
2023-01-13T04:32:57.854Z,463.00
2023-01-13T04:33:27.885Z,464.00
2023-01-13T04:33:57.907Z,466.00
2023-01-13T04:34:28.545Z,465.00
2023-01-13T04:34:57.981Z,464.00
2023-01-13T04:35:27.999Z,463.00
2023-01-13T04:35:58.032Z,464.00
2023-01-13T04:36:28.056Z,465.00
2023-01-13T04:36:58.078Z,464.00
2023-01-13T04:37:28.121Z,462.00
2023-01-13T04:37:58.148Z,461.00
2023-01-13T04:38:28.181Z,461.00
2023-01-13T04:38:58.206Z,459.00
2023-01-13T04:39:28.242Z,459.00
2023-01-13T04:39:58.286Z,462.00
2023-01-13T04:40:28.315Z,461.00
2023-01-13T04:40:58.337Z,460.00
2023-01-13T04:41:28.431Z,458.00
2023-01-13T04:41:58.443Z,458.00
2023-01-13T04:42:28.456Z,459.00
2023-01-13T04:42:58.479Z,459.00
2023-01-13T04:43:28.506Z,459.00
2023-01-13T04:43:58.545Z,459.00
2023-01-13T04:44:28.563Z,459.00
2023-01-13T04:44:58.598Z,460.00
2023-01-13T04:45:28.612Z,460.00
2023-01-13T04:45:58.719Z,461.00
2023-01-13T04:46:28.827Z,464.00
2023-01-13T04:46:58.827Z,465.00
2023-01-13T04:47:28.868Z,464.00
2023-01-13T04:47:58.881Z,464.00
2023-01-13T04:48:28.922Z,466.00
2023-01-13T04:48:58.933Z,465.00
2023-01-13T04:49:28.995Z,468.00
2023-01-13T04:49:59.027Z,468.00
2023-01-13T04:50:29.052Z,469.00
2023-01-13T04:50:59.087Z,467.00
2023-01-13T04:51:29.119Z,464.00
2023-01-13T04:51:59.118Z,463.00
2023-01-13T04:52:29.111Z,465.00
2023-01-13T04:52:59.221Z,464.00
2023-01-13T04:53:29.350Z,465.00
2023-01-13T04:53:59.447Z,465.00
2023-01-13T04:54:29.594Z,465.00
2023-01-13T04:54:59.590Z,465.00
2023-01-13T04:55:29.589Z,464.00
2023-01-13T04:55:59.598Z,469.00
2023-01-13T04:56:29.738Z,470.00
2023-01-13T04:56:59.752Z,470.00
2023-01-13T04:57:29.866Z,467.00
2023-01-13T04:57:59.945Z,468.00
2023-01-13T04:58:29.943Z,467.00
2023-01-13T04:59:00.083Z,470.00
2023-01-13T04:59:30.167Z,475.00
2023-01-13T05:00:00.286Z,476.00
2023-01-13T05:00:30.287Z,479.00
2023-01-13T05:01:00.446Z,480.00
2023-01-13T05:01:30.632Z,479.00
2023-01-13T05:02:00.605Z,477.00
2023-01-13T05:02:30.557Z,476.00
2023-01-13T05:03:00.602Z,476.00
2023-01-13T05:03:30.791Z,479.00
2023-01-13T05:04:00.724Z,482.00
2023-01-13T05:04:30.762Z,483.00
2023-01-13T05:05:00.784Z,484.00
2023-01-13T05:05:30.817Z,484.00
2023-01-13T05:06:00.824Z,484.00
2023-01-13T05:06:30.893Z,485.00
2023-01-13T05:07:00.913Z,484.00
2023-01-13T05:07:30.939Z,485.00
2023-01-13T05:08:00.972Z,484.00
2023-01-13T05:08:30.993Z,483.00
2023-01-13T05:09:01.014Z,485.00
2023-01-13T05:09:31.046Z,486.00
2023-01-13T05:10:01.075Z,488.00
2023-01-13T05:10:31.103Z,485.00
2023-01-13T05:11:01.127Z,484.00
2023-01-13T05:11:31.147Z,485.00
2023-01-13T05:12:01.191Z,489.00
2023-01-13T05:12:31.235Z,490.00
2023-01-13T05:13:01.231Z,487.00
2023-01-13T05:13:31.262Z,486.00
2023-01-13T05:14:01.284Z,486.00
2023-01-13T05:14:31.323Z,487.00
2023-01-13T05:15:01.346Z,487.00
2023-01-13T05:15:31.358Z,488.00
2023-01-13T05:16:01.495Z,489.00
2023-01-13T05:16:31.476Z,490.00
2023-01-13T05:17:01.508Z,489.00
2023-01-13T05:17:31.546Z,491.00
2023-01-13T05:18:01.560Z,493.00
2023-01-13T05:18:31.607Z,493.00
2023-01-13T05:19:01.617Z,497.00
2023-01-13T05:19:31.670Z,497.00
2023-01-13T05:20:01.727Z,497.00
2023-01-13T05:20:31.728Z,497.00
2023-01-13T05:21:01.743Z,494.00
2023-01-13T05:21:31.773Z,494.00
2023-01-13T05:22:01.806Z,496.00
2023-01-13T05:22:31.839Z,500.00
2023-01-13T05:23:01.871Z,496.00
2023-01-13T05:23:31.893Z,514.00
2023-01-13T05:24:01.936Z,526.00
2023-01-13T05:24:31.947Z,532.00
2023-01-13T05:25:01.971Z,535.00
2023-01-13T05:25:32.000Z,536.00
2023-01-13T05:26:02.022Z,538.00
2023-01-13T05:26:32.074Z,539.00
2023-01-13T05:27:02.097Z,541.00
2023-01-13T05:27:32.122Z,543.00
2023-01-13T05:28:02.168Z,544.00
2023-01-13T05:28:32.162Z,544.00
2023-01-13T05:29:02.222Z,543.00
2023-01-13T05:29:32.216Z,543.00
2023-01-13T05:30:02.304Z,544.00
2023-01-13T05:30:32.324Z,544.00
2023-01-13T05:31:02.386Z,545.00
2023-01-13T05:31:32.443Z,546.00
2023-01-13T05:32:02.470Z,545.00
2023-01-13T05:32:32.490Z,544.00
2023-01-13T05:33:02.513Z,545.00
2023-01-13T05:33:34.899Z,544.00
2023-01-13T05:34:02.534Z,545.00
2023-01-13T05:34:32.553Z,546.00
2023-01-13T05:35:02.595Z,547.00
2023-01-13T05:35:32.603Z,549.00
2023-01-13T05:36:02.655Z,549.00
2023-01-13T05:36:32.669Z,548.00
2023-01-13T05:37:02.701Z,550.00
2023-01-13T05:37:32.757Z,550.00
2023-01-13T05:38:02.780Z,550.00
2023-01-13T05:38:32.809Z,550.00
2023-01-13T05:39:02.836Z,548.00
2023-01-13T05:39:32.859Z,548.00
2023-01-13T05:40:02.905Z,548.00
2023-01-13T05:40:32.931Z,549.00
2023-01-13T05:41:02.955Z,549.00
2023-01-13T05:41:32.976Z,548.00
2023-01-13T05:42:03.008Z,547.00
2023-01-13T05:42:33.048Z,546.00
2023-01-13T05:43:03.095Z,548.00
2023-01-13T05:43:33.116Z,546.00
2023-01-13T05:44:03.111Z,545.00
2023-01-13T05:44:33.147Z,545.00
2023-01-13T05:45:03.178Z,543.00
2023-01-13T05:45:33.202Z,527.00
2023-01-13T05:46:03.403Z,544.00
2023-01-13T05:46:33.442Z,546.00
2023-01-13T05:47:03.350Z,546.00
2023-01-13T05:47:33.370Z,547.00
2023-01-13T05:48:03.391Z,548.00
2023-01-13T05:48:33.426Z,550.00
2023-01-13T05:49:03.449Z,552.00
2023-01-13T05:49:33.476Z,555.00
2023-01-13T05:50:03.513Z,558.00
2023-01-13T05:50:33.608Z,558.00
2023-01-13T05:51:03.650Z,558.00
2023-01-13T05:51:33.798Z,559.00
2023-01-13T05:52:03.764Z,556.00
2023-01-13T05:52:33.804Z,556.00
2023-01-13T05:53:03.785Z,556.00
2023-01-13T05:53:33.911Z,557.00
2023-01-13T05:54:04.022Z,559.00
2023-01-13T05:54:34.135Z,560.00
2023-01-13T05:55:04.252Z,560.00
2023-01-13T05:55:34.352Z,560.00
2023-01-13T05:56:04.481Z,560.00
2023-01-13T05:56:34.583Z,560.00
2023-01-13T05:57:04.694Z,559.00
2023-01-13T05:57:34.829Z,558.00
2023-01-13T05:58:04.936Z,560.00
2023-01-13T05:58:34.920Z,562.00
2023-01-13T05:59:05.064Z,566.00
2023-01-13T05:59:35.146Z,564.00
2023-01-13T06:00:05.205Z,564.00
2023-01-13T06:00:35.321Z,563.00
2023-01-13T06:01:05.532Z,560.00
2023-01-13T06:01:35.672Z,561.00
2023-01-13T06:02:05.629Z,561.00
2023-01-13T06:02:35.744Z,560.00
2023-01-13T06:03:05.797Z,558.00
2023-01-13T06:03:35.832Z,557.00
2023-01-13T06:04:06.025Z,558.00
2023-01-13T06:04:36.011Z,555.00
2023-01-13T06:05:05.985Z,553.00
2023-01-13T06:05:36.030Z,551.00
2023-01-13T06:06:06.041Z,551.00
2023-01-13T06:06:36.080Z,550.00
2023-01-13T06:07:06.112Z,550.00
2023-01-13T06:07:36.172Z,549.00
2023-01-13T06:08:06.249Z,549.00
2023-01-13T06:08:39.277Z,549.00
2023-01-13T06:09:06.363Z,549.00
2023-01-13T06:09:36.398Z,550.00
2023-01-13T06:10:06.414Z,551.00
2023-01-13T06:10:36.446Z,550.00
2023-01-13T06:11:06.472Z,549.00
2023-01-13T06:11:36.495Z,550.00
2023-01-13T06:12:06.636Z,549.00
2023-01-13T06:12:36.663Z,549.00
2023-01-13T06:13:06.698Z,549.00
2023-01-13T06:13:36.715Z,549.00
2023-01-13T06:14:06.744Z,549.00
2023-01-13T06:14:37.248Z,550.00
2023-01-13T06:15:06.886Z,552.00